AAL863 KMIA-MDPC
Flight info
| Callsign | AAL863 |
|---|---|
| Flight time | N/A |
| Altitude | 39000 |
| Route | KLADA2 JAGOR DCT RUMFO Y441 JUELE UW38 PTA DCT PETRI DCT BEREL BEREL1W |
| Aircraft | A320/M-SDE3FGHIRWY/LB1 |
Departure
| Time | N/A |
|---|---|
| Airport | Miami International Airport (KMIA) |
Arrival
| Time | 2026-03-22 23:19 |
|---|---|
| Airport | Punta Cana International Airport (MDPC) |
| Time | Latitude | Longitude | Altitude | Speed | Heading |
|---|---|---|---|---|---|
| 2026-03-22 22:10 | 21.53253 | -72.74272 | 39081 ft | 502 kts | 134° |
| 2026-03-22 22:11 | 21.51201 | -72.71236 | 39088 ft | 502 kts | 134° |
| 2026-03-22 22:11 | 21.47095 | -72.65157 | 39097 ft | 502 kts | 134° |
| 2026-03-22 22:12 | 21.43680 | -72.60121 | 39095 ft | 502 kts | 134° |
| 2026-03-22 22:12 | 21.39553 | -72.54063 | 39096 ft | 503 kts | 134° |
| 2026-03-22 22:13 | 21.35430 | -72.48003 | 39100 ft | 503 kts | 134° |
| 2026-03-22 22:13 | 21.31306 | -72.41939 | 39101 ft | 503 kts | 134° |
| 2026-03-22 22:14 | 21.27185 | -72.35873 | 39102 ft | 503 kts | 134° |
| 2026-03-22 22:14 | 21.23062 | -72.29814 | 39099 ft | 503 kts | 134° |
| 2026-03-22 22:15 | 21.18930 | -72.23758 | 39096 ft | 503 kts | 134° |
| 2026-03-22 22:15 | 21.14801 | -72.17714 | 39084 ft | 502 kts | 134° |
| 2026-03-22 22:16 | 21.10698 | -72.11725 | 39094 ft | 501 kts | 134° |
| 2026-03-22 22:16 | 21.06554 | -72.05669 | 39099 ft | 500 kts | 134° |
| 2026-03-22 22:17 | 21.02472 | -71.99708 | 39086 ft | 500 kts | 134° |
| 2026-03-22 22:17 | 20.98361 | -71.93716 | 39095 ft | 499 kts | 134° |
| 2026-03-22 22:18 | 20.94243 | -71.87729 | 39093 ft | 499 kts | 134° |
| 2026-03-22 22:18 | 20.90134 | -71.81755 | 39097 ft | 499 kts | 134° |
| 2026-03-22 22:19 | 20.86025 | -71.75776 | 39004 ft | 497 kts | 134° |
| 2026-03-22 22:19 | 20.83991 | -71.72814 | 38731 ft | 489 kts | 134° |
| 2026-03-22 22:19 | 20.82005 | -71.69919 | 38595 ft | 477 kts | 135° |
| 2026-03-22 22:19 | 20.80057 | -71.67078 | 38325 ft | 469 kts | 135° |
| 2026-03-22 22:20 | 20.78138 | -71.64290 | 37904 ft | 464 kts | 135° |
| 2026-03-22 22:20 | 20.76230 | -71.61531 | 37507 ft | 459 kts | 135° |
| 2026-03-22 22:20 | 20.74335 | -71.58795 | 37055 ft | 456 kts | 135° |
| 2026-03-22 22:20 | 20.72445 | -71.56075 | 36525 ft | 457 kts | 136° |
| 2026-03-22 22:21 | 20.70546 | -71.53345 | 35931 ft | 459 kts | 136° |
| 2026-03-22 22:21 | 20.68640 | -71.50600 | 35349 ft | 461 kts | 135° |
| 2026-03-22 22:21 | 20.66728 | -71.47839 | 34752 ft | 464 kts | 135° |
| 2026-03-22 22:21 | 20.64804 | -71.45056 | 34169 ft | 467 kts | 135° |
| 2026-03-22 22:22 | 20.62873 | -71.42260 | 33526 ft | 469 kts | 134° |
| 2026-03-22 22:22 | 20.60952 | -71.39482 | 32916 ft | 471 kts | 134° |
| 2026-03-22 22:22 | 20.59003 | -71.36669 | 32322 ft | 471 kts | 133° |
| 2026-03-22 22:22 | 20.57053 | -71.33858 | 31738 ft | 472 kts | 132° |
| 2026-03-22 22:23 | 20.55074 | -71.31007 | 31243 ft | 471 kts | 132° |
| 2026-03-22 22:23 | 20.53150 | -71.28234 | 31044 ft | 472 kts | 131° |
| 2026-03-22 22:23 | 20.51198 | -71.25423 | 31070 ft | 472 kts | 131° |
| 2026-03-22 22:24 | 20.47277 | -71.19784 | 31071 ft | 473 kts | 131° |
| 2026-03-22 22:24 | 20.43352 | -71.14153 | 31066 ft | 472 kts | 133° |
| 2026-03-22 22:25 | 20.38711 | -71.09303 | 31068 ft | 471 kts | 149° |
| 2026-03-22 22:25 | 20.36089 | -71.07132 | 31068 ft | 483 kts | 149° |
| 2026-03-22 22:25 | 20.33409 | -71.04910 | 31066 ft | 493 kts | 149° |
| 2026-03-22 22:26 | 20.27968 | -71.00359 | 31069 ft | 499 kts | 148° |
| 2026-03-22 22:26 | 20.22517 | -70.95780 | 31063 ft | 499 kts | 148° |
| 2026-03-22 22:27 | 20.14326 | -70.88927 | 31060 ft | 499 kts | 148° |
| 2026-03-22 22:27 | 20.08854 | -70.84379 | 31063 ft | 499 kts | 149° |
| 2026-03-22 22:28 | 20.03420 | -70.79867 | 31041 ft | 499 kts | 149° |
| 2026-03-22 22:28 | 19.97956 | -70.75326 | 31038 ft | 498 kts | 149° |
| 2026-03-22 22:29 | 19.92492 | -70.70786 | 31036 ft | 498 kts | 149° |
| 2026-03-22 22:29 | 19.87032 | -70.66252 | 31021 ft | 498 kts | 149° |
| 2026-03-22 22:30 | 19.81571 | -70.61726 | 31019 ft | 498 kts | 149° |
| 2026-03-22 22:30 | 19.76267 | -70.57067 | 30742 ft | 492 kts | 138° |
| 2026-03-22 22:31 | 19.74229 | -70.54152 | 29934 ft | 490 kts | 124° |
| 2026-03-22 22:31 | 19.72489 | -70.51068 | 28978 ft | 482 kts | 124° |
| 2026-03-22 22:31 | 19.70798 | -70.48036 | 28135 ft | 473 kts | 124° |
| 2026-03-22 22:31 | 19.69138 | -70.45057 | 27303 ft | 463 kts | 124° |
| 2026-03-22 22:32 | 19.67528 | -70.42184 | 26554 ft | 454 kts | 124° |
| 2026-03-22 22:32 | 19.65919 | -70.39330 | 26190 ft | 434 kts | 124° |
| 2026-03-22 22:32 | 19.64403 | -70.36655 | 26024 ft | 423 kts | 124° |
| 2026-03-22 22:32 | 19.62889 | -70.33999 | 26047 ft | 420 kts | 124° |
| 2026-03-22 22:33 | 19.61373 | -70.31342 | 26042 ft | 420 kts | 124° |
| 2026-03-22 22:33 | 19.59864 | -70.28701 | 25655 ft | 420 kts | 124° |
| 2026-03-22 22:33 | 19.58335 | -70.26019 | 24594 ft | 426 kts | 124° |
| 2026-03-22 22:33 | 19.56811 | -70.23338 | 23806 ft | 422 kts | 123° |
| 2026-03-22 22:34 | 19.55313 | -70.20696 | 22991 ft | 415 kts | 123° |
| 2026-03-22 22:34 | 19.53836 | -70.18093 | 22171 ft | 407 kts | 123° |
| 2026-03-22 22:34 | 19.52390 | -70.15547 | 21385 ft | 400 kts | 123° |
| 2026-03-22 22:34 | 19.50963 | -70.13037 | 20610 ft | 394 kts | 123° |
| 2026-03-22 22:35 | 19.49557 | -70.10572 | 19869 ft | 387 kts | 123° |
| 2026-03-22 22:35 | 19.48176 | -70.08151 | 19147 ft | 381 kts | 122° |
| 2026-03-22 22:35 | 19.46818 | -70.05773 | 18465 ft | 374 kts | 122° |
| 2026-03-22 22:35 | 19.45495 | -70.03452 | 18067 ft | 359 kts | 122° |
| 2026-03-22 22:36 | 19.44222 | -70.01217 | 17868 ft | 350 kts | 122° |
| 2026-03-22 22:36 | 19.42966 | -69.99019 | 17654 ft | 347 kts | 122° |
| 2026-03-22 22:36 | 19.41717 | -69.96838 | 17436 ft | 346 kts | 123° |
| 2026-03-22 22:36 | 19.40473 | -69.94666 | 17218 ft | 344 kts | 122° |
| 2026-03-22 22:37 | 19.39237 | -69.92504 | 17001 ft | 342 kts | 122° |
| 2026-03-22 22:37 | 19.38005 | -69.90348 | 16787 ft | 342 kts | 122° |
| 2026-03-22 22:37 | 19.36771 | -69.88194 | 16572 ft | 341 kts | 122° |
| 2026-03-22 22:37 | 19.35563 | -69.86082 | 16364 ft | 340 kts | 122° |
| 2026-03-22 22:38 | 19.34338 | -69.83938 | 16148 ft | 340 kts | 122° |
| 2026-03-22 22:38 | 19.33118 | -69.81805 | 15938 ft | 338 kts | 122° |
| 2026-03-22 22:38 | 19.31902 | -69.79681 | 15718 ft | 336 kts | 122° |
| 2026-03-22 22:38 | 19.30691 | -69.77565 | 15515 ft | 336 kts | 122° |
| 2026-03-22 22:39 | 19.29486 | -69.75461 | 15309 ft | 332 kts | 122° |
| 2026-03-22 22:39 | 19.28295 | -69.73386 | 15102 ft | 330 kts | 122° |
| 2026-03-22 22:39 | 19.27102 | -69.71309 | 14908 ft | 330 kts | 122° |
| 2026-03-22 22:39 | 19.25929 | -69.69219 | 14693 ft | 328 kts | 120° |
| 2026-03-22 22:40 | 19.24809 | -69.67115 | 14479 ft | 328 kts | 120° |
| 2026-03-22 22:40 | 19.23716 | -69.65003 | 14283 ft | 326 kts | 119° |
| 2026-03-22 22:40 | 19.22636 | -69.62895 | 14083 ft | 324 kts | 118° |
| 2026-03-22 22:40 | 19.21562 | -69.60806 | 13885 ft | 323 kts | 119° |
| 2026-03-22 22:41 | 19.20488 | -69.58733 | 13648 ft | 320 kts | 119° |
| 2026-03-22 22:41 | 19.19414 | -69.56679 | 13441 ft | 318 kts | 119° |
| 2026-03-22 22:41 | 19.18357 | -69.54658 | 13245 ft | 320 kts | 119° |
| 2026-03-22 22:41 | 19.17276 | -69.52595 | 13074 ft | 318 kts | 120° |
| 2026-03-22 22:42 | 19.16193 | -69.50533 | 12939 ft | 322 kts | 120° |
| 2026-03-22 22:42 | 19.15108 | -69.48469 | 12744 ft | 321 kts | 120° |
| 2026-03-22 22:42 | 19.14025 | -69.46408 | 12549 ft | 319 kts | 120° |
| 2026-03-22 22:42 | 19.12948 | -69.44361 | 12349 ft | 319 kts | 119° |
| 2026-03-22 22:43 | 19.11875 | -69.42320 | 12149 ft | 317 kts | 120° |
| 2026-03-22 22:43 | 19.10807 | -69.40289 | 11954 ft | 315 kts | 120° |
| 2026-03-22 22:43 | 19.09742 | -69.38261 | 11765 ft | 316 kts | 119° |
| 2026-03-22 22:43 | 19.08678 | -69.36234 | 11607 ft | 315 kts | 120° |
| 2026-03-22 22:44 | 19.07615 | -69.34212 | 11403 ft | 315 kts | 120° |
| 2026-03-22 22:44 | 19.06550 | -69.32187 | 11217 ft | 315 kts | 119° |
| 2026-03-22 22:44 | 19.05492 | -69.30176 | 11019 ft | 312 kts | 120° |
| 2026-03-22 22:44 | 19.04435 | -69.28173 | 10829 ft | 312 kts | 120° |
| 2026-03-22 22:45 | 19.03383 | -69.26181 | 10631 ft | 309 kts | 120° |
| 2026-03-22 22:45 | 19.02337 | -69.24201 | 10437 ft | 309 kts | 119° |
| 2026-03-22 22:45 | 19.01288 | -69.22215 | 10249 ft | 310 kts | 119° |
| 2026-03-22 22:45 | 19.00242 | -69.20234 | 10053 ft | 308 kts | 120° |
| 2026-03-22 22:46 | 18.99197 | -69.18249 | 9853 ft | 308 kts | 120° |
| 2026-03-22 22:46 | 18.98156 | -69.16273 | 9655 ft | 307 kts | 120° |
| 2026-03-22 22:46 | 18.97124 | -69.14316 | 9456 ft | 304 kts | 120° |
| 2026-03-22 22:46 | 18.96093 | -69.12365 | 9269 ft | 303 kts | 120° |
| 2026-03-22 22:47 | 18.95079 | -69.10450 | 9082 ft | 301 kts | 120° |
| 2026-03-22 22:47 | 18.94059 | -69.08522 | 8897 ft | 301 kts | 120° |
| 2026-03-22 22:47 | 18.93036 | -69.06583 | 8706 ft | 302 kts | 120° |
| 2026-03-22 22:47 | 18.92017 | -69.04655 | 8519 ft | 300 kts | 120° |
| 2026-03-22 22:48 | 18.91000 | -69.02734 | 8322 ft | 300 kts | 120° |
| 2026-03-22 22:48 | 18.89983 | -69.00813 | 8113 ft | 298 kts | 120° |
| 2026-03-22 22:48 | 18.88970 | -68.98901 | 7988 ft | 296 kts | 121° |
| 2026-03-22 22:48 | 18.87964 | -68.97004 | 7862 ft | 296 kts | 120° |
| 2026-03-22 22:49 | 18.86962 | -68.95115 | 7753 ft | 294 kts | 121° |
| 2026-03-22 22:49 | 18.85968 | -68.93241 | 7618 ft | 291 kts | 120° |
| 2026-03-22 22:49 | 18.84994 | -68.91398 | 7807 ft | 277 kts | 120° |
| 2026-03-22 22:49 | 18.84085 | -68.89678 | 7968 ft | 265 kts | 120° |
| 2026-03-22 22:50 | 18.83188 | -68.87987 | 8014 ft | 264 kts | 121° |
| 2026-03-22 22:50 | 18.82146 | -68.86397 | 8028 ft | 263 kts | 131° |
| 2026-03-22 22:50 | 18.81008 | -68.84895 | 8022 ft | 260 kts | 129° |
| 2026-03-22 22:50 | 18.80014 | -68.83212 | 8015 ft | 285 kts | 110° |
| 2026-03-22 22:51 | 18.79763 | -68.81112 | 8025 ft | 293 kts | 83° |
| 2026-03-22 22:51 | 18.80417 | -68.79092 | 8014 ft | 294 kts | 56° |
| 2026-03-22 22:51 | 18.81807 | -68.77568 | 8014 ft | 294 kts | 34° |
| 2026-03-22 22:51 | 18.83624 | -68.76660 | 8016 ft | 289 kts | 9° |
| 2026-03-22 22:52 | 18.85604 | -68.76691 | 8019 ft | 284 kts | 343° |
| 2026-03-22 22:52 | 18.87327 | -68.77644 | 8015 ft | 279 kts | 315° |
| 2026-03-22 22:52 | 18.88418 | -68.79289 | 8015 ft | 275 kts | 289° |
| 2026-03-22 22:52 | 18.88657 | -68.81281 | 8024 ft | 276 kts | 262° |
| 2026-03-22 22:53 | 18.87995 | -68.83147 | 8014 ft | 274 kts | 235° |
| 2026-03-22 22:53 | 18.86638 | -68.84520 | 8021 ft | 265 kts | 213° |
| 2026-03-22 22:53 | 18.84995 | -68.85249 | 8014 ft | 252 kts | 194° |
| 2026-03-22 22:53 | 18.83260 | -68.85345 | 8023 ft | 251 kts | 173° |
| 2026-03-22 22:54 | 18.81583 | -68.84822 | 8022 ft | 254 kts | 154° |
| 2026-03-22 22:54 | 18.80155 | -68.83717 | 8011 ft | 258 kts | 135° |
| 2026-03-22 22:54 | 18.79020 | -68.82238 | 8014 ft | 258 kts | 129° |
| 2026-03-22 22:54 | 18.77910 | -68.80753 | 8016 ft | 258 kts | 129° |
| 2026-03-22 22:55 | 18.76799 | -68.79275 | 8014 ft | 257 kts | 130° |
| 2026-03-22 22:55 | 18.75679 | -68.77788 | 8011 ft | 259 kts | 130° |
| 2026-03-22 22:55 | 18.74556 | -68.76299 | 8011 ft | 259 kts | 130° |
| 2026-03-22 22:55 | 18.73431 | -68.74808 | 8004 ft | 258 kts | 131° |
| 2026-03-22 22:56 | 18.72309 | -68.73323 | 8012 ft | 259 kts | 130° |
| 2026-03-22 22:56 | 18.71181 | -68.71829 | 8010 ft | 261 kts | 130° |
| 2026-03-22 22:56 | 18.70049 | -68.70330 | 7956 ft | 262 kts | 130° |
| 2026-03-22 22:56 | 18.68927 | -68.68844 | 7600 ft | 261 kts | 130° |
| 2026-03-22 22:57 | 18.67805 | -68.67354 | 7193 ft | 258 kts | 129° |
| 2026-03-22 22:57 | 18.66700 | -68.65878 | 6694 ft | 254 kts | 129° |
| 2026-03-22 22:57 | 18.65614 | -68.64429 | 6321 ft | 250 kts | 129° |
| 2026-03-22 22:57 | 18.64539 | -68.62995 | 5987 ft | 248 kts | 128° |
| 2026-03-22 22:58 | 18.63472 | -68.61575 | 5679 ft | 248 kts | 127° |
| 2026-03-22 22:58 | 18.62408 | -68.60159 | 5359 ft | 247 kts | 126° |
| 2026-03-22 22:58 | 18.61701 | -68.59218 | 5148 ft | 246 kts | 126° |
| 2026-03-22 22:58 | 18.60017 | -68.57600 | 4722 ft | 247 kts | 148° |
| 2026-03-22 22:59 | 18.58408 | -68.56961 | 4371 ft | 249 kts | 162° |
| 2026-03-22 22:59 | 18.56745 | -68.56477 | 4024 ft | 248 kts | 162° |
| 2026-03-22 22:59 | 18.55650 | -68.56153 | 3789 ft | 242 kts | 162° |
| 2026-03-22 22:59 | 18.54146 | -68.55481 | 3462 ft | 228 kts | 136° |
| 2026-03-22 23:00 | 18.53239 | -68.54224 | 3159 ft | 206 kts | 104° |
| 2026-03-22 23:00 | 18.53068 | -68.52831 | 3033 ft | 178 kts | 77° |
| 2026-03-22 23:00 | 18.53443 | -68.51343 | 3037 ft | 144 kts | 69° |
| 2026-03-22 23:00 | 18.53630 | -68.50669 | 3012 ft | 138 kts | 69° |
| 2026-03-22 23:01 | 18.53896 | -68.49715 | 3010 ft | 135 kts | 68° |
| 2026-03-22 23:01 | 18.54161 | -68.48772 | 3005 ft | 134 kts | 68° |
| 2026-03-22 23:01 | 18.54424 | -68.47833 | 3008 ft | 134 kts | 69° |
| 2026-03-22 23:01 | 18.54685 | -68.46903 | 3010 ft | 128 kts | 69° |
| 2026-03-22 23:02 | 18.54919 | -68.46038 | 2808 ft | 124 kts | 69° |
| 2026-03-22 23:02 | 18.55157 | -68.45133 | 2496 ft | 133 kts | 69° |
| 2026-03-22 23:02 | 18.55406 | -68.44183 | 2185 ft | 135 kts | 69° |
| 2026-03-22 23:02 | 18.55658 | -68.43216 | 1828 ft | 136 kts | 70° |
| 2026-03-22 23:03 | 18.55911 | -68.42248 | 1454 ft | 138 kts | 69° |
| 2026-03-22 23:03 | 18.56166 | -68.41271 | 1074 ft | 138 kts | 69° |
| 2026-03-22 23:03 | 18.56442 | -68.40319 | 740 ft | 132 kts | 66° |
| 2026-03-22 23:03 | 18.56723 | -68.39408 | 427 ft | 131 kts | 69° |
| 2026-03-22 23:04 | 18.56986 | -68.38466 | 161 ft | 139 kts | 70° |
| 2026-03-22 23:04 | 18.57047 | -68.38236 | 66 ft | 141 kts | 72° |
| 2026-03-22 23:04 | 18.57307 | -68.37319 | 394 ft | 141 kts | 69° |
| 2026-03-22 23:04 | 18.57623 | -68.36228 | 862 ft | 170 kts | 68° |
| 2026-03-22 23:05 | 18.57988 | -68.34888 | 1252 ft | 211 kts | 70° |
| 2026-03-22 23:05 | 18.58578 | -68.33452 | 2325 ft | 209 kts | 53° |
| 2026-03-22 23:05 | 18.59660 | -68.32533 | 3465 ft | 202 kts | 22° |
| 2026-03-22 23:05 | 18.61069 | -68.32389 | 3579 ft | 207 kts | 348° |
| 2026-03-22 23:06 | 18.62334 | -68.33118 | 3380 ft | 210 kts | 321° |
| 2026-03-22 23:06 | 18.63228 | -68.34340 | 3328 ft | 212 kts | 310° |
| 2026-03-22 23:06 | 18.64092 | -68.35608 | 3198 ft | 216 kts | 310° |
| 2026-03-22 23:06 | 18.64776 | -68.37007 | 2995 ft | 216 kts | 289° |
| 2026-03-22 23:07 | 18.64840 | -68.38622 | 3008 ft | 227 kts | 263° |
| 2026-03-22 23:07 | 18.64476 | -68.40256 | 3010 ft | 228 kts | 260° |
| 2026-03-22 23:07 | 18.64101 | -68.41875 | 3010 ft | 227 kts | 259° |
| 2026-03-22 23:07 | 18.63725 | -68.43491 | 3008 ft | 226 kts | 259° |
| 2026-03-22 23:08 | 18.63352 | -68.45100 | 3008 ft | 227 kts | 259° |
| 2026-03-22 23:08 | 18.62964 | -68.46795 | 3016 ft | 243 kts | 259° |
| 2026-03-22 23:08 | 18.62562 | -68.48537 | 3015 ft | 245 kts | 259° |
| 2026-03-22 23:08 | 18.62160 | -68.50277 | 3015 ft | 243 kts | 260° |
| 2026-03-22 23:09 | 18.61760 | -68.52005 | 3014 ft | 243 kts | 259° |
| 2026-03-22 23:09 | 18.61367 | -68.53712 | 3010 ft | 232 kts | 259° |
| 2026-03-22 23:09 | 18.61028 | -68.55307 | 3004 ft | 215 kts | 269° |
| 2026-03-22 23:09 | 18.61235 | -68.56770 | 3012 ft | 201 kts | 300° |
| 2026-03-22 23:10 | 18.62113 | -68.57927 | 3023 ft | 209 kts | 330° |
| 2026-03-22 23:10 | 18.63465 | -68.58504 | 3022 ft | 207 kts | 348° |
| 2026-03-22 23:10 | 18.64828 | -68.58923 | 3011 ft | 209 kts | 346° |
| 2026-03-22 23:10 | 18.66114 | -68.59660 | 3021 ft | 216 kts | 319° |
| 2026-03-22 23:11 | 18.66880 | -68.61022 | 3019 ft | 225 kts | 287° |
| 2026-03-22 23:11 | 18.66800 | -68.62689 | 3019 ft | 236 kts | 251° |
| 2026-03-22 23:11 | 18.65798 | -68.64052 | 3018 ft | 241 kts | 213° |
| 2026-03-22 23:11 | 18.64224 | -68.64552 | 3013 ft | 238 kts | 175° |
| 2026-03-22 23:12 | 18.62684 | -68.64004 | 3017 ft | 230 kts | 140° |
| 2026-03-22 23:12 | 18.61465 | -68.62937 | 3018 ft | 228 kts | 136° |
| 2026-03-22 23:12 | 18.59001 | -68.60827 | 3015 ft | 229 kts | 137° |
| 2026-03-22 23:13 | 18.57756 | -68.59767 | 3015 ft | 231 kts | 137° |
| 2026-03-22 23:13 | 18.56509 | -68.58704 | 3016 ft | 230 kts | 137° |
| 2026-03-22 23:13 | 18.55269 | -68.57649 | 3014 ft | 228 kts | 137° |
| 2026-03-22 23:13 | 18.54082 | -68.56644 | 3008 ft | 211 kts | 136° |
| 2026-03-22 23:14 | 18.53166 | -68.55528 | 3009 ft | 195 kts | 110° |
| 2026-03-22 23:14 | 18.52822 | -68.54285 | 3032 ft | 162 kts | 89° |
| 2026-03-22 23:14 | 18.52908 | -68.53195 | 3001 ft | 141 kts | 69° |
| 2026-03-22 23:14 | 18.53175 | -68.52259 | 3018 ft | 124 kts | 68° |
| 2026-03-22 23:15 | 18.53438 | -68.51352 | 2903 ft | 137 kts | 68° |
| 2026-03-22 23:15 | 18.53718 | -68.50352 | 2711 ft | 146 kts | 69° |
| 2026-03-22 23:15 | 18.53998 | -68.49306 | 2490 ft | 149 kts | 69° |
| 2026-03-22 23:15 | 18.54293 | -68.48254 | 2258 ft | 150 kts | 69° |
| 2026-03-22 23:16 | 18.54580 | -68.47232 | 2022 ft | 141 kts | 70° |
| 2026-03-22 23:16 | 18.54844 | -68.46262 | 1747 ft | 136 kts | 69° |
| 2026-03-22 23:16 | 18.55112 | -68.45301 | 1411 ft | 136 kts | 68° |
| 2026-03-22 23:16 | 18.55375 | -68.44346 | 1204 ft | 136 kts | 70° |
| 2026-03-22 23:17 | 18.55629 | -68.43420 | 1033 ft | 133 kts | 68° |
| 2026-03-22 23:17 | 18.55893 | -68.42471 | 881 ft | 136 kts | 68° |
| 2026-03-22 23:17 | 18.56155 | -68.41528 | 768 ft | 133 kts | 70° |
| 2026-03-22 23:17 | 18.56370 | -68.40584 | 626 ft | 131 kts | 72° |
| 2026-03-22 23:18 | 18.56615 | -68.39707 | 520 ft | 121 kts | 69° |
| 2026-03-22 23:18 | 18.56887 | -68.38816 | 345 ft | 136 kts | 69° |
| 2026-03-22 23:18 | 18.57153 | -68.37862 | 91 ft | 130 kts | 71° |
| 2026-03-22 23:18 | 18.57372 | -68.37054 | 50 ft | 87 kts | 74° |
| 2026-03-22 23:19 | 18.57464 | -68.36715 | 49 ft | 17 kts | 73° |
| 2026-03-22 23:19 | 18.57492 | -68.36628 | 50 ft | 13 kts | 73° |
| 2026-03-22 23:19 | 18.57498 | -68.36606 | 50 ft | 3 kts | 76° |
| 2026-03-22 23:19 | 18.57514 | -68.36513 | 50 ft | 15 kts | 86° |
| 2026-03-22 23:20 | 18.57514 | -68.36501 | 49 ft | 0 kts | 92° |